Time;durP1;ratioP1;P1;durP2;ratioP2;P2;SDS_P1;SDS_P2;PMS_P1;PMS_P2;Temp;Humidity;BMP_temperature;BMP_pressure;BME280_temperature;BME280_humidity;BME280_pressure;Samples;Min_cycle;Max_cycle;Signal;HPM_P1;HPM_P2
2023/06/15 00:00:28;;;;;;;8.65;3.88;;;;;;;;;;4858779;29;20397;-89
2023/06/15 00:02:55;;;;;;;9.63;3.70;;;;;;;;;;4866651;29;20067;-89
2023/06/15 00:05:23;;;;;;;6.28;3.33;;;;;;;;;;4855495;29;20422;-89
2023/06/15 00:07:58;;;;;;;9.00;3.50;;;;;;;;;;4844810;29;20045;-90
2023/06/15 00:10:37;;;;;;;8.45;3.50;;;;;;;;;;4858303;29;20489;-88
2023/06/15 00:13:04;;;;;;;16.00;3.17;;;;;;;;;;4859323;29;20041;-88
2023/06/15 00:15:30;;;;;;;8.75;3.85;;;;;;;;;;4857961;29;20036;-88
2023/06/15 00:17:57;;;;;;;7.70;3.67;;;;;;;;;;4863725;29;20135;-88
2023/06/15 00:20:28;;;;;;;4.20;2.90;;;;;;;;;;4840632;29;20668;-88
2023/06/15 00:22:55;;;;;;;5.07;3.42;;;;;;;;;;4843799;29;20098;-88
2023/06/15 00:25:34;;;;;;;9.10;3.55;;;;;;;;;;4874151;29;20036;-87
2023/06/15 00:28:02;;;;;;;6.07;3.55;;;;;;;;;;4855972;29;20458;-89
2023/06/15 00:30:37;;;;;;;10.93;4.10;;;;;;;;;;4858015;29;20036;-88
2023/06/15 00:33:03;;;;;;;8.32;4.20;;;;;;;;;;4860558;29;20029;-88
2023/06/15 00:35:30;;;;;;;6.57;3.80;;;;;;;;;;4848199;29;20089;-89
2023/06/15 00:37:57;;;;;;;7.43;3.88;;;;;;;;;;4845101;29;20045;-88
2023/06/15 00:40:23;;;;;;;5.80;3.50;;;;;;;;;;4855586;29;20083;-88
2023/06/15 00:42:50;;;;;;;7.43;3.15;;;;;;;;;;4852873;29;20040;-88
2023/06/15 00:45:20;;;;;;;11.30;3.70;;;;;;;;;;4850971;29;20070;-88
2023/06/15 00:47:56;;;;;;;11.80;3.75;;;;;;;;;;4858700;29;20051;-88
2023/06/15 00:50:23;;;;;;;5.28;3.55;;;;;;;;;;4862103;29;20029;-88
2023/06/15 00:52:58;;;;;;;8.48;3.53;;;;;;;;;;4856334;29;20040;-88
2023/06/15 00:55:25;;;;;;;8.23;3.60;;;;;;;;;;4857260;29;20449;-88
2023/06/15 00:57:54;;;;;;;6.78;3.72;;;;;;;;;;4847028;29;20397;-88
2023/06/15 01:00:24;;;;;;;10.73;3.85;;;;;;;;;;4855885;29;20509;-85
2023/06/15 01:02:56;;;;;;;10.60;4.45;;;;;;;;;;4838287;29;20037;-88
2023/06/15 01:05:25;;;;;;;7.38;3.95;;;;;;;;;;4836048;29;20049;-87
2023/06/15 01:07:53;;;;;;;9.10;3.63;;;;;;;;;;4850497;29;20120;-90
2023/06/15 01:10:21;;;;;;;10.43;3.70;;;;;;;;;;4847300;29;20040;-91
2023/06/15 01:12:50;;;;;;;7.53;4.18;;;;;;;;;;4851714;29;20029;-89
2023/06/15 01:15:18;;;;;;;9.02;4.10;;;;;;;;;;4851641;29;20147;-90
2023/06/15 01:17:55;;;;;;;5.47;3.60;;;;;;;;;;4852160;29;20056;-90
2023/06/15 01:20:26;;;;;;;8.98;3.45;;;;;;;;;;4859709;29;20037;-90
2023/06/15 01:23:01;;;;;;;9.95;3.88;;;;;;;;;;4847792;29;20494;-90
2023/06/15 01:26:03;;;;;;;13.27;5.35;;;;;;;;;;4861450;29;20055;-90
2023/06/15 01:28:30;;;;;;;5.70;3.45;;;;;;;;;;4827574;29;20045;-90
2023/06/15 01:31:05;;;;;;;9.45;3.80;;;;;;;;;;4830830;29;22735;-88
2023/06/15 01:34:00;;;;;;;11.65;4.25;;;;;;;;;;4844006;29;20036;-90
2023/06/15 01:36:27;;;;;;;6.50;3.35;;;;;;;;;;4860294;29;20040;-89
2023/06/15 01:38:56;;;;;;;7.35;3.88;;;;;;;;;;4853805;29;20041;-90
2023/06/15 01:41:24;;;;;;;7.82;3.78;;;;;;;;;;4844994;29;20112;-90
2023/06/15 01:43:51;;;;;;;10.88;3.80;;;;;;;;;;4846084;29;20379;-90
2023/06/15 01:46:24;;;;;;;8.73;3.85;;;;;;;;;;4847615;29;21020;-89
2023/06/15 01:48:51;;;;;;;8.05;3.75;;;;;;;;;;4861128;29;20064;-90
2023/06/15 01:51:18;;;;;;;9.77;3.70;;;;;;;;;;4831922;29;20125;-89
2023/06/15 01:53:48;;;;;;;10.30;4.85;;;;;;;;;;4850572;29;20122;-89
2023/06/15 01:56:35;;;;;;;11.23;3.65;;;;;;;;;;4839612;29;20057;-89
2023/06/15 01:59:02;;;;;;;9.82;4.18;;;;;;;;;;4843995;29;20387;-89
2023/06/15 02:01:28;;;;;;;9.05;3.78;;;;;;;;;;4844021;29;20098;-90
2023/06/15 02:03:55;;;;;;;8.23;3.70;;;;;;;;;;4847790;29;20026;-89
2023/06/15 02:06:21;;;;;;;9.55;3.88;;;;;;;;;;4852697;29;20354;-89
2023/06/15 02:08:51;;;;;;;9.73;3.72;;;;;;;;;;4846281;29;20037;-90
2023/06/15 02:11:27;;;;;;;6.18;4.53;;;;;;;;;;4842939;29;20038;-90
2023/06/15 02:13:53;;;;;;;;;;;;;;;;;;4831812;29;20037;-90
2023/06/15 02:16:20;;;;;;;8.82;4.13;;;;;;;;;;4858008;29;19958;-89
2023/06/15 02:18:47;;;;;;;6.70;3.60;;;;;;;;;;4840668;29;20048;-88
2023/06/15 02:21:14;;;;;;;10.88;4.15;;;;;;;;;;4846224;29;20073;-89
2023/06/15 02:23:40;;;;;;;7.05;4.22;;;;;;;;;;4858190;29;20060;-89
2023/06/15 02:26:07;;;;;;;7.43;4.03;;;;;;;;;;4848948;29;20169;-88
2023/06/15 02:28:34;;;;;;;7.72;3.70;;;;;;;;;;4855408;29;20040;-89
2023/06/15 02:31:00;;;;;;;10.25;3.90;;;;;;;;;;4857771;29;20033;-89
2023/06/15 02:33:27;;;;;;;7.90;3.83;;;;;;;;;;4862023;29;20131;-89
2023/06/15 02:35:53;;;;;;;6.90;4.07;;;;;;;;;;4847804;29;20092;-88
2023/06/15 02:38:23;;;;;;;14.35;4.53;;;;;;;;;;4859348;29;20033;-89
2023/06/15 02:40:50;;;;;;;13.63;4.47;;;;;;;;;;4852740;29;20040;-89
2023/06/15 02:43:16;;;;;;;7.40;4.32;;;;;;;;;;4845100;29;20042;-89
2023/06/15 02:45:51;;;;;;;13.48;4.40;;;;;;;;;;4864536;29;20131;-89
2023/06/15 02:48:18;;;;;;;9.90;4.38;;;;;;;;;;4863908;29;20060;-89
2023/06/15 02:50:47;;;;;;;10.50;4.00;;;;;;;;;;4840672;29;20136;-89
2023/06/15 02:53:17;;;;;;;10.80;4.55;;;;;;;;;;4851124;29;20078;-88
2023/06/15 02:55:43;;;;;;;7.35;4.00;;;;;;;;;;4838947;29;20033;-89
2023/06/15 02:58:13;;;;;;;12.07;4.43;;;;;;;;;;4845677;29;20426;-89
2023/06/15 03:00:40;;;;;;;9.80;3.75;;;;;;;;;;4851961;29;20084;-88
2023/06/15 03:03:07;;;;;;;8.05;4.15;;;;;;;;;;4835714;29;20041;-89
2023/06/15 03:05:33;;;;;;;13.38;4.75;;;;;;;;;;4849676;29;20067;-88
2023/06/15 03:08:11;;;;;;;7.97;4.53;;;;;;;;;;4850792;29;20168;-89
2023/06/15 03:10:47;;;;;;;10.52;4.70;;;;;;;;;;4837524;29;20048;-88
2023/06/15 03:13:13;;;;;;;8.68;4.55;;;;;;;;;;4838900;29;20040;-90
2023/06/15 03:15:40;;;;;;;13.02;4.57;;;;;;;;;;4849661;29;20454;-90
2023/06/15 03:18:09;;;;;;;8.45;5.20;;;;;;;;;;4838741;29;20045;-90
2023/06/15 03:20:35;;;;;;;14.18;4.82;;;;;;;;;;4851712;29;20065;-89
2023/06/15 03:23:01;;;;;;;12.20;4.85;;;;;;;;;;4862013;29;20060;-89
2023/06/15 03:25:29;;;;;;;13.15;4.72;;;;;;;;;;4861438;29;20036;-89
2023/06/15 03:28:01;;;;;;;6.78;4.07;;;;;;;;;;4850110;29;20035;-89
2023/06/15 03:30:28;;;;;;;8.80;4.93;;;;;;;;;;4865818;29;20442;-89
2023/06/15 03:32:54;;;;;;;19.35;5.72;;;;;;;;;;4859710;29;20050;-90
2023/06/15 03:35:21;;;;;;;13.18;5.07;;;;;;;;;;4855688;29;20532;-89
2023/06/15 03:37:48;;;;;;;10.90;5.40;;;;;;;;;;4862932;29;20044;-89
2023/06/15 03:40:14;;;;;;;10.07;5.00;;;;;;;;;;4859410;29;20029;-90
2023/06/15 03:42:42;;;;;;;10.50;4.57;;;;;;;;;;4848496;29;20085;-90
2023/06/15 03:45:09;;;;;;;11.07;4.20;;;;;;;;;;4842635;29;20390;-90
2023/06/15 03:47:35;;;;;;;7.10;5.38;;;;;;;;;;4840977;29;20108;-89
2023/06/15 03:50:01;;;;;;;9.77;5.22;;;;;;;;;;4859401;29;20225;-89
2023/06/15 03:52:27;;;;;;;8.13;5.03;;;;;;;;;;4861694;29;20041;-89
2023/06/15 03:54:54;;;;;;;7.18;4.80;;;;;;;;;;4857917;29;20376;-89
2023/06/15 03:57:21;;;;;;;10.73;4.38;;;;;;;;;;4860445;29;20031;-89
2023/06/15 03:59:47;;;;;;;11.00;5.00;;;;;;;;;;4852077;29;20425;-89
2023/06/15 04:02:16;;;;;;;14.98;5.13;;;;;;;;;;4861265;29;20072;-89
2023/06/15 04:04:43;;;;;;;13.77;5.03;;;;;;;;;;4859658;29;20040;-89
2023/06/15 04:07:10;;;;;;;11.60;5.50;;;;;;;;;;4844102;29;20406;-89
2023/06/15 04:09:37;;;;;;;11.00;5.25;;;;;;;;;;4851885;29;20432;-89
2023/06/15 04:12:04;;;;;;;7.78;4.57;;;;;;;;;;4858408;29;20049;-89
2023/06/15 04:14:30;;;;;;;13.52;5.28;;;;;;;;;;4864353;29;20037;-90
2023/06/15 04:16:56;;;;;;;13.70;5.47;;;;;;;;;;4863159;29;20041;-89
2023/06/15 04:19:22;;;;;;;12.80;5.05;;;;;;;;;;4847987;29;20041;-89
2023/06/15 04:21:52;;;;;;;7.22;4.90;;;;;;;;;;4846404;29;20053;-90
2023/06/15 04:24:18;;;;;;;9.80;5.55;;;;;;;;;;4854373;29;20056;-89
2023/06/15 04:26:44;;;;;;;11.30;4.57;;;;;;;;;;4845465;29;20038;-89
2023/06/15 04:29:18;;;;;;;8.32;4.78;;;;;;;;;;4859450;29;20025;-89
2023/06/15 04:31:46;;;;;;;14.07;5.10;;;;;;;;;;4859392;29;20036;-89
2023/06/15 04:34:22;;;;;;;10.55;5.47;;;;;;;;;;4863919;29;20112;-87
2023/06/15 04:37:11;;;;;;;15.50;4.85;;;;;;;;;;4844627;29;20048;-88
2023/06/15 04:39:38;;;;;;;9.48;4.88;;;;;;;;;;4863212;29;20486;-88
2023/06/15 04:42:18;;;;;;;8.00;4.57;;;;;;;;;;4864507;29;20041;-88
2023/06/15 04:45:02;;;;;;;7.40;4.88;;;;;;;;;;4879260;29;20104;-88
2023/06/15 04:50:21;;;;;;;10.77;4.57;;;;;;;;;;4848558;29;20029;-88
2023/06/15 04:52:53;;;;;;;10.23;4.43;;;;;;;;;;4872543;29;20394;-88
2023/06/15 04:55:21;;;;;;;10.18;5.43;;;;;;;;;;4873326;29;20024;-88
2023/06/15 04:57:50;;;;;;;12.95;5.57;;;;;;;;;;4853183;29;20049;-88
2023/06/15 05:00:25;;;;;;;11.43;4.57;;;;;;;;;;4883341;29;20064;-88
2023/06/15 05:03:11;;;;;;;7.68;4.30;;;;;;;;;;4876229;29;20037;-88
2023/06/15 05:05:50;;;;;;;9.95;5.03;;;;;;;;;;4864626;29;20033;-88
2023/06/15 05:08:21;;;;;;;6.05;3.97;;;;;;;;;;4870607;29;20410;-88
2023/06/15 05:11:01;;;;;;;6.13;4.40;;;;;;;;;;4850351;29;20481;-88
2023/06/15 05:13:41;;;;;;;;;;;;;;;;;;;;;
2023/06/15 05:16:13;;;;;;;10.13;4.93;;;;;;;;;;4889363;29;20092;-88
2023/06/15 05:18:45;;;;;;;10.55;4.30;;;;;;;;;;4868535;29;20045;-88
2023/06/15 05:21:38;;;;;;;8.02;4.32;;;;;;;;;;4870801;29;20039;-90
2023/06/15 05:24:16;;;;;;;7.80;4.47;;;;;;;;;;4875308;29;20454;-88
2023/06/15 05:26:48;;;;;;;16.42;4.60;;;;;;;;;;4868592;29;20058;-88
2023/06/15 05:29:28;;;;;;;16.63;4.90;;;;;;;;;;4884329;29;20045;-87
2023/06/15 05:32:17;;;;;;;10.95;4.45;;;;;;;;;;4866411;29;20048;-89
2023/06/15 05:34:54;;;;;;;9.35;4.50;;;;;;;;;;4841622;29;20037;-89
2023/06/15 05:37:21;;;;;;;7.68;3.92;;;;;;;;;;4860182;29;20277;-89
2023/06/15 05:39:50;;;;;;;16.38;4.47;;;;;;;;;;4859295;29;20525;-90
2023/06/15 05:42:38;;;;;;;8.80;4.38;;;;;;;;;;4846275;29;20056;-89
2023/06/15 05:45:06;;;;;;;6.85;4.35;;;;;;;;;;4850193;29;20491;-89
2023/06/15 05:47:41;;;;;;;8.45;4.25;;;;;;;;;;4867501;29;20331;-90
2023/06/15 05:50:24;;;;;;;6.20;4.60;;;;;;;;;;4877753;29;20067;-90
2023/06/15 05:52:56;;;;;;;11.20;3.85;;;;;;;;;;4865073;29;20033;-89
2023/06/15 05:55:25;;;;;;;9.07;3.63;;;;;;;;;;4863860;29;20045;-90
2023/06/15 05:57:57;;;;;;;11.98;4.10;;;;;;;;;;4825039;29;20043;-88
2023/06/15 06:00:31;;;;;;;6.60;3.88;;;;;;;;;;4832131;29;20049;-90
2023/06/15 06:03:08;;;;;;;6.80;3.63;;;;;;;;;;4838656;29;20033;-89
2023/06/15 06:05:34;;;;;;;7.88;3.55;;;;;;;;;;4815402;29;20030;-90
2023/06/15 06:08:04;;;;;;;5.53;3.55;;;;;;;;;;4823851;29;20078;-90
2023/06/15 06:10:43;;;;;;;11.57;2.97;;;;;;;;;;4815405;29;20061;-90
2023/06/15 06:13:12;;;;;;;4.70;3.03;;;;;;;;;;4823512;29;20152;-89
2023/06/15 06:15:42;;;;;;;14.38;3.42;;;;;;;;;;4822606;29;20044;-89
2023/06/15 06:18:10;;;;;;;7.43;3.10;;;;;;;;;;4806646;29;20055;-90
2023/06/15 06:20:53;;;;;;;10.55;4.47;;;;;;;;;;4804374;29;20045;-90
2023/06/15 06:23:20;;;;;;;7.13;3.13;;;;;;;;;;4816619;29;20030;-89
2023/06/15 06:25:46;;;;;;;9.75;3.65;;;;;;;;;;4805704;29;20049;-89
2023/06/15 06:28:12;;;;;;;4.97;2.92;;;;;;;;;;4814410;29;20045;-89
2023/06/15 06:30:48;;;;;;;10.45;2.92;;;;;;;;;;4841718;29;20042;-90
2023/06/15 06:33:25;;;;;;;6.70;3.40;;;;;;;;;;4877291;29;20033;-90
2023/06/15 06:36:08;;;;;;;4.75;3.17;;;;;;;;;;4845244;29;20060;-89
2023/06/15 06:38:38;;;;;;;5.03;2.97;;;;;;;;;;4857566;29;20069;-90
2023/06/15 06:41:14;;;;;;;5.07;2.72;;;;;;;;;;4884642;29;20040;-89
2023/06/15 06:43:41;;;;;;;9.88;3.70;;;;;;;;;;4858414;29;20540;-88
2023/06/15 06:46:08;;;;;;;4.68;2.90;;;;;;;;;;4859182;29;20045;-88
2023/06/15 06:48:34;;;;;;;7.43;2.97;;;;;;;;;;4842600;29;20530;-87
2023/06/15 06:51:00;;;;;;;9.85;3.08;;;;;;;;;;4863669;29;20036;-88
2023/06/15 06:53:28;;;;;;;5.07;3.22;;;;;;;;;;4849955;29;20040;-89
2023/06/15 06:55:59;;;;;;;5.75;3.35;;;;;;;;;;4860732;29;20043;-88
2023/06/15 06:58:27;;;;;;;10.68;3.38;;;;;;;;;;4860353;29;20037;-89
2023/06/15 07:00:55;;;;;;;6.95;2.85;;;;;;;;;;4846115;29;20089;-89
2023/06/15 07:03:22;;;;;;;7.65;2.97;;;;;;;;;;4841800;29;20771;-89
2023/06/15 07:05:48;;;;;;;11.02;2.60;;;;;;;;;;4856785;29;20127;-89
2023/06/15 07:08:14;;;;;;;8.27;3.00;;;;;;;;;;4840735;29;20070;-87
2023/06/15 07:10:40;;;;;;;14.50;2.70;;;;;;;;;;4852347;29;20052;-88
2023/06/15 07:13:08;;;;;;;7.28;3.15;;;;;;;;;;4852001;29;20466;-89
2023/06/15 07:15:41;;;;;;;7.40;3.22;;;;;;;;;;4839947;29;20562;-87
2023/06/15 07:18:07;;;;;;;11.23;3.38;;;;;;;;;;4853968;29;20076;-88
2023/06/15 07:20:33;;;;;;;12.93;3.72;;;;;;;;;;4865250;29;20036;-88
2023/06/15 07:22:59;;;;;;;6.35;3.40;;;;;;;;;;4862552;29;20516;-88
2023/06/15 07:25:26;;;;;;;6.60;3.10;;;;;;;;;;4847045;29;20085;-88
2023/06/15 07:27:52;;;;;;;9.43;3.30;;;;;;;;;;4860241;29;20037;-88
2023/06/15 07:30:18;;;;;;;10.45;3.33;;;;;;;;;;4849036;29;20037;-88
2023/06/15 07:32:45;;;;;;;6.82;3.13;;;;;;;;;;4878847;29;20406;-88
2023/06/15 07:35:12;;;;;;;7.72;3.15;;;;;;;;;;4847033;29;20570;-88
2023/06/15 07:37:49;;;;;;;6.10;2.67;;;;;;;;;;4857920;29;20041;-87
2023/06/15 07:40:15;;;;;;;8.27;2.63;;;;;;;;;;4865110;29;20409;-89
2023/06/15 07:42:41;;;;;;;8.52;3.25;;;;;;;;;;4853191;29;20501;-89
2023/06/15 07:45:09;;;;;;;18.35;3.40;;;;;;;;;;4852312;29;20043;-88
2023/06/15 07:47:35;;;;;;;7.75;2.75;;;;;;;;;;4849313;29;20497;-89
2023/06/15 07:50:07;;;;;;;7.70;3.15;;;;;;;;;;4856843;29;20147;-89
2023/06/15 07:52:58;;;;;;;;;;;;;;;;;;;;;
2023/06/15 07:55:27;;;;;;;6.15;3.30;;;;;;;;;;4883062;29;20087;-88
2023/06/15 07:57:53;;;;;;;12.70;2.95;;;;;;;;;;4870142;29;20047;-88
2023/06/15 08:00:21;;;;;;;10.75;2.90;;;;;;;;;;4864059;29;20036;-88
2023/06/15 08:02:48;;;;;;;4.85;2.60;;;;;;;;;;4845612;29;20045;-88
2023/06/15 08:05:18;;;;;;;20.65;5.22;;;;;;;;;;4859987;29;20095;-89
2023/06/15 08:07:45;;;;;;;9.43;2.65;;;;;;;;;;4860082;29;20036;-87
2023/06/15 08:10:13;;;;;;;9.65;3.00;;;;;;;;;;4847926;29;20133;-89
2023/06/15 08:12:40;;;;;;;7.80;2.60;;;;;;;;;;4851273;29;20078;-89
2023/06/15 08:15:08;;;;;;;8.15;2.75;;;;;;;;;;4864014;29;20033;-90
2023/06/15 08:18:03;;;;;;;5.05;2.50;;;;;;;;;;4873776;29;20048;-89
2023/06/15 08:20:29;;;;;;;7.18;2.83;;;;;;;;;;4862570;29;20049;-89
2023/06/15 08:22:56;;;;;;;5.32;2.67;;;;;;;;;;4842573;29;20089;-90
2023/06/15 08:25:27;;;;;;;6.03;3.05;;;;;;;;;;4846873;29;20099;-90
2023/06/15 08:27:55;;;;;;;8.45;2.75;;;;;;;;;;4870317;29;20390;-90
2023/06/15 08:30:38;;;;;;;8.77;2.60;;;;;;;;;;4845890;29;20060;-89
2023/06/15 08:33:13;;;;;;;3.58;2.53;;;;;;;;;;4859069;29;20037;-89
2023/06/15 08:39:08;;;;;;;9.57;3.10;;;;;;;;;;4804583;29;20046;-89
2023/06/15 08:41:40;;;;;;;7.18;2.92;;;;;;;;;;4873335;29;20033;-90
2023/06/15 08:44:14;;;;;;;7.82;2.95;;;;;;;;;;4861873;29;20363;-89
2023/06/15 08:46:44;;;;;;;4.97;2.85;;;;;;;;;;4859810;29;20498;-90
2023/06/15 08:49:17;;;;;;;3.67;2.45;;;;;;;;;;4867859;29;20037;-89
2023/06/15 08:52:06;;;;;;;;;;;;;;;;;;;;;
2023/06/15 08:54:47;;;;;;;5.60;2.65;;;;;;;;;;4886206;29;20092;-89
2023/06/15 08:57:20;;;;;;;6.00;2.67;;;;;;;;;;4851111;29;20128;-89
2023/06/15 08:59:56;;;;;;;5.90;3.03;;;;;;;;;;4877646;29;20556;-90
2023/06/15 09:02:43;;;;;;;4.55;2.70;;;;;;;;;;4850961;29;20437;-89
2023/06/15 09:05:29;;;;;;;5.68;2.78;;;;;;;;;;4871117;29;20033;-89
2023/06/15 09:07:59;;;;;;;6.35;2.85;;;;;;;;;;4866292;29;20049;-90
2023/06/15 09:10:28;;;;;;;7.30;2.90;;;;;;;;;;4866635;29;20040;-90
2023/06/15 09:12:57;;;;;;;5.10;2.70;;;;;;;;;;4866477;29;20033;-90
2023/06/15 09:15:27;;;;;;;8.82;3.10;;;;;;;;;;4873734;29;20029;-90
2023/06/15 09:18:02;;;;;;;6.75;3.10;;;;;;;;;;4858941;29;20441;-90
2023/06/15 09:20:40;;;;;;;8.15;3.42;;;;;;;;;;4873625;29;20070;-89
2023/06/15 09:23:11;;;;;;;3.60;2.92;;;;;;;;;;4868506;29;20057;-89
2023/06/15 09:25:56;;;;;;;4.90;2.67;;;;;;;;;;4873564;29;20048;-90
2023/06/15 09:31:33;;;;;;;9.15;3.03;;;;;;;;;;4875986;29;20022;-88
2023/06/15 09:34:22;;;;;;;5.35;2.72;;;;;;;;;;4863734;29;20053;-88
2023/06/15 09:40:33;;;;;;;4.15;2.53;;;;;;;;;;4881965;29;20112;-91
2023/06/15 09:43:16;;;;;;;;;;;;;;;;;;;;;
2023/06/15 09:46:30;;;;;;;8.52;2.65;;;;;;;;;;4880691;29;20135;-91
2023/06/15 09:49:05;;;;;;;5.43;2.70;;;;;;;;;;4881169;29;20048;-90
2023/06/15 09:51:50;;;;;;;6.70;2.70;;;;;;;;;;4854493;29;20040;-90
2023/06/15 09:54:20;;;;;;;5.20;2.58;;;;;;;;;;4868037;29;20059;-89
2023/06/15 09:57:19;;;;;;;4.65;2.88;;;;;;;;;;4870047;29;20524;-89
2023/06/15 10:00:06;;;;;;;4.03;2.38;;;;;;;;;;4887633;29;20044;-90
2023/06/15 10:02:35;;;;;;;5.57;2.95;;;;;;;;;;4878756;29;20052;-89
2023/06/15 10:05:13;;;;;;;6.68;3.05;;;;;;;;;;4872241;29;20064;-89
2023/06/15 10:08:02;;;;;;;7.18;2.40;;;;;;;;;;4865487;29;20128;-89
2023/06/15 10:10:41;;;;;;;3.58;2.67;;;;;;;;;;4871976;29;20677;-89
2023/06/15 10:13:11;;;;;;;5.10;3.05;;;;;;;;;;4873085;29;20044;-89
2023/06/15 10:15:51;;;;;;;6.78;2.78;;;;;;;;;;4877835;29;20029;-91
2023/06/15 10:18:29;;;;;;;4.57;2.40;;;;;;;;;;4896088;29;20037;-89
2023/06/15 10:21:04;;;;;;;3.40;2.63;;;;;;;;;;4891596;29;20028;-89
2023/06/15 10:24:19;;;;;;;4.45;2.97;;;;;;;;;;4873421;29;20030;-90
2023/06/15 10:26:46;;;;;;;5.55;2.10;;;;;;;;;;4868531;29;20041;-89
2023/06/15 10:29:40;;;;;;;4.05;2.50;;;;;;;;;;4848450;29;20038;-89
2023/06/15 10:35:11;;;;;;;7.72;3.05;;;;;;;;;;4875303;29;20538;-89
2023/06/15 10:38:05;;;;;;;3.83;2.47;;;;;;;;;;4882847;29;20176;-90
2023/06/15 10:41:01;;;;;;;4.88;2.65;;;;;;;;;;4863965;29;20086;-90
2023/06/15 10:43:28;;;;;;;5.10;2.70;;;;;;;;;;4862302;29;20085;-90
2023/06/15 10:45:57;;;;;;;8.35;3.65;;;;;;;;;;4869165;29;20589;-90
2023/06/15 10:48:53;;;;;;;7.10;3.10;;;;;;;;;;4874903;29;20052;-90
2023/06/15 10:51:21;;;;;;;3.90;2.47;;;;;;;;;;4810661;29;20031;-90
2023/06/15 10:53:48;;;;;;;9.18;2.47;;;;;;;;;;4870096;29;20045;-90
2023/06/15 10:56:17;;;;;;;6.82;2.88;;;;;;;;;;4894231;29;20119;-90
2023/06/15 10:59:13;;;;;;;4.10;2.92;;;;;;;;;;4852009;29;20053;-90
2023/06/15 11:01:55;;;;;;;13.82;2.75;;;;;;;;;;4867834;29;20574;-90
2023/06/15 11:04:37;;;;;;;11.23;2.55;;;;;;;;;;4876146;29;20037;-89
2023/06/15 11:07:10;;;;;;;3.95;2.63;;;;;;;;;;4881605;29;20043;-90
2023/06/15 11:09:37;;;;;;;7.47;2.85;;;;;;;;;;4862426;29;20478;-91
2023/06/15 11:12:29;;;;;;;6.35;2.90;;;;;;;;;;4853585;29;20033;-90
2023/06/15 11:15:06;;;;;;;7.10;2.75;;;;;;;;;;4874675;29;20045;-91
2023/06/15 11:17:52;;;;;;;8.82;2.80;;;;;;;;;;4882044;29;20120;-89
2023/06/15 11:20:39;;;;;;;10.88;3.22;;;;;;;;;;4875801;29;20039;-88
2023/06/15 11:23:28;;;;;;;;;;;;;;;;;;;;;
2023/06/15 11:26:01;;;;;;;5.10;3.30;;;;;;;;;;4891660;29;20067;-89
2023/06/15 11:28:36;;;;;;;5.97;2.97;;;;;;;;;;4858213;29;20045;-89
2023/06/15 11:31:21;;;;;;;4.28;2.63;;;;;;;;;;4875558;29;20037;-90
2023/06/15 11:33:50;;;;;;;8.40;3.20;;;;;;;;;;4876922;29;20041;-90
2023/06/15 11:36:25;;;;;;;5.90;2.67;;;;;;;;;;4858885;29;20092;-89
2023/06/15 11:41:53;;;;;;;4.75;3.10;;;;;;;;;;4892036;29;20056;-89
2023/06/15 11:44:47;;;;;;;5.20;2.63;;;;;;;;;;4854468;29;20037;-89
2023/06/15 11:47:11;;;;;;;4.22;3.38;;;;;;;;;;4881044;29;20034;-90
2023/06/15 11:50:03;;;;;;;6.68;3.20;;;;;;;;;;4868074;29;20065;-89
2023/06/15 11:52:53;;;;;;;6.35;2.92;;;;;;;;;;4892421;29;20116;-89
2023/06/15 12:01:36;;;;;;;4.43;3.13;;;;;;;;;;4883690;29;20033;-89
2023/06/15 12:04:12;;;;;;;10.43;2.92;;;;;;;;;;4861450;29;20101;-90
2023/06/15 12:10:17;;;;;;;;;;;;;;;;;;;;;
2023/06/15 12:12:48;;;;;;;4.25;2.78;;;;;;;;;;4825108;29;20467;-91
2023/06/15 12:15:31;;;;;;;;;;;;;;;;;;;;;
2023/06/15 12:21:26;;;;;;;6.93;3.00;;;;;;;;;;4778354;30;20024;-90
2023/06/15 12:23:59;;;;;;;3.95;2.85;;;;;;;;;;4812011;29;20046;-90
2023/06/15 12:27:02;;;;;;;10.25;3.10;;;;;;;;;;4821104;29;20014;-89
2023/06/15 12:29:38;;;;;;;3.92;2.60;;;;;;;;;;4832996;29;20073;-90
2023/06/15 12:32:34;;;;;;;7.43;3.38;;;;;;;;;;4815130;29;20015;-90
2023/06/15 12:37:56;;;;;;;7.82;2.70;;;;;;;;;;4841680;29;20053;-89
2023/06/15 12:40:26;;;;;;;6.38;4.43;;;;;;;;;;4813936;29;20029;-90
2023/06/15 12:43:06;;;;;;;4.82;3.10;;;;;;;;;;4863460;29;20052;-89
2023/06/15 12:45:59;;;;;;;5.97;3.08;;;;;;;;;;4868529;29;20102;-89
2023/06/15 12:51:20;;;;;;;7.32;2.80;;;;;;;;;;4864194;29;20034;-90
2023/06/15 12:54:11;;;;;;;6.78;3.50;;;;;;;;;;4866941;29;20738;-89
2023/06/15 12:56:46;;;;;;;6.05;2.90;;;;;;;;;;4839118;29;20074;-89
2023/06/15 12:59:12;;;;;;;5.50;2.83;;;;;;;;;;4848706;29;20038;-89
2023/06/15 13:02:09;;;;;;;8.40;2.90;;;;;;;;;;4851037;29;20564;-88
2023/06/15 13:04:36;;;;;;;5.20;3.15;;;;;;;;;;4850933;29;20029;-90
2023/06/15 13:07:36;;;;;;;4.05;2.92;;;;;;;;;;4842134;29;20050;-88
2023/06/15 13:10:34;;;;;;;8.55;3.10;;;;;;;;;;4856635;29;20030;-90
2023/06/15 13:15:57;;;;;;;3.85;2.70;;;;;;;;;;4826356;29;20062;-89
2023/06/15 13:18:55;;;;;;;3.40;2.67;;;;;;;;;;4856341;29;20367;-89
2023/06/15 13:21:22;;;;;;;6.45;3.08;;;;;;;;;;4836878;29;20053;-89
2023/06/15 13:23:59;;;;;;;4.35;2.85;;;;;;;;;;4856214;29;20062;-89
2023/06/15 13:26:31;;;;;;;4.47;2.70;;;;;;;;;;4853761;29;20055;-89
2023/06/15 13:29:19;;;;;;;7.47;3.05;;;;;;;;;;4883291;29;20044;-89
2023/06/15 13:31:53;;;;;;;4.78;3.10;;;;;;;;;;4889750;29;20048;-89
2023/06/15 13:34:45;;;;;;;4.78;3.05;;;;;;;;;;4870448;29;20037;-90
2023/06/15 13:37:16;;;;;;;9.27;3.28;;;;;;;;;;4887769;29;20029;-89
2023/06/15 14:36:14;;;;;;;6.10;2.75;;;;;;;;;;507454;27;20452;-89
2023/06/15 14:41:32;;;;;;;5.05;2.50;;;;;;;;;;4762696;29;20071;-90
2023/06/15 14:44:08;;;;;;;5.50;2.42;;;;;;;;;;4767037;30;20072;-91
2023/06/15 14:47:17;;;;;;;6.47;2.58;;;;;;;;;;4817617;29;20033;-91
2023/06/15 14:49:24;;;;;;;10.80;2.75;;;;;;;;;;4859030;29;20555;-90
2023/06/15 14:51:51;;;;;;;5.30;2.80;;;;;;;;;;4837086;29;20417;-90
2023/06/15 14:54:17;;;;;;;5.78;2.45;;;;;;;;;;4824634;29;20041;-90
2023/06/15 14:56:52;;;;;;;7.95;2.60;;;;;;;;;;4844830;29;20038;-90
2023/06/15 14:59:29;;;;;;;;;;;;;;;;;;;;;
2023/06/15 15:02:03;;;;;;;5.18;2.38;;;;;;;;;;4866552;29;20101;-90
2023/06/15 15:04:34;;;;;;;5.93;2.92;;;;;;;;;;4836393;29;20038;-90
2023/06/15 15:07:04;;;;;;;5.13;2.80;;;;;;;;;;4849275;29;20131;-89
2023/06/15 15:09:39;;;;;;;5.90;2.65;;;;;;;;;;4834718;29;20098;-90
2023/06/15 15:12:08;;;;;;;5.32;2.60;;;;;;;;;;4854300;29;20096;-90
2023/06/15 15:14:52;;;;;;;6.13;2.58;;;;;;;;;;4856740;29;20129;-89
2023/06/15 15:17:20;;;;;;;;;;;;;;;;;;4858025;29;20037;-90
2023/06/15 15:19:46;;;;;;;3.38;2.40;;;;;;;;;;4849691;29;19963;-91
2023/06/15 15:22:26;;;;;;;5.35;2.67;;;;;;;;;;4851658;29;20035;-90
2023/06/15 15:24:56;;;;;;;5.13;2.53;;;;;;;;;;4846572;29;20104;-90
2023/06/15 15:27:23;;;;;;;7.13;2.95;;;;;;;;;;4834702;29;20375;-90
2023/06/15 15:29:55;;;;;;;5.53;2.58;;;;;;;;;;4851733;29;20038;-91
2023/06/15 15:32:22;;;;;;;8.65;2.80;;;;;;;;;;4833040;29;20054;-90
2023/06/15 15:34:48;;;;;;;2.78;2.15;;;;;;;;;;4839905;29;20463;-91
2023/06/15 15:37:30;;;;;;;6.93;2.95;;;;;;;;;;4855582;29;20045;-89
2023/06/15 15:39:59;;;;;;;7.45;3.13;;;;;;;;;;4845470;29;20034;-90
2023/06/15 15:42:26;;;;;;;3.80;2.80;;;;;;;;;;4835093;29;20098;-90
2023/06/15 15:44:55;;;;;;;8.27;2.92;;;;;;;;;;4823300;29;20169;-89
2023/06/15 15:47:25;;;;;;;4.55;2.90;;;;;;;;;;4851167;29;20486;-89
2023/06/15 15:49:52;;;;;;;8.00;3.20;;;;;;;;;;4854403;29;20060;-90
2023/06/15 15:52:27;;;;;;;9.90;3.17;;;;;;;;;;4842078;29;20056;-90
2023/06/15 15:54:53;;;;;;;8.95;2.88;;;;;;;;;;4850023;29;20033;-89
2023/06/15 15:57:20;;;;;;;3.72;2.83;;;;;;;;;;4840562;29;20037;-89
2023/06/15 15:59:46;;;;;;;4.22;2.70;;;;;;;;;;4829913;29;20050;-90
2023/06/15 16:02:12;;;;;;;3.47;2.22;;;;;;;;;;4837044;29;20132;-90
2023/06/15 16:04:39;;;;;;;7.93;2.42;;;;;;;;;;4842005;29;20037;-90
2023/06/15 16:07:06;;;;;;;5.45;2.47;;;;;;;;;;4839551;29;20268;-89
2023/06/15 16:09:34;;;;;;;4.97;2.15;;;;;;;;;;4855865;29;20258;-89
2023/06/15 16:12:00;;;;;;;6.20;2.60;;;;;;;;;;4850680;29;20041;-89
2023/06/15 16:14:27;;;;;;;5.47;2.42;;;;;;;;;;4852724;29;20034;-91
2023/06/15 16:16:56;;;;;;;4.28;3.03;;;;;;;;;;4847700;29;20084;-90
2023/06/15 16:19:22;;;;;;;8.02;4.70;;;;;;;;;;4827864;29;20520;-90
2023/06/15 16:21:49;;;;;;;9.60;5.63;;;;;;;;;;4837868;29;20467;-90
2023/06/15 16:24:18;;;;;;;8.25;2.70;;;;;;;;;;4854874;29;20033;-90
2023/06/15 16:26:45;;;;;;;4.28;2.70;;;;;;;;;;4851277;29;20069;-89
2023/06/15 16:29:11;;;;;;;7.43;2.97;;;;;;;;;;4828977;29;20057;-90
2023/06/15 16:31:38;;;;;;;8.48;2.85;;;;;;;;;;4848604;29;20415;-89
2023/06/15 16:34:05;;;;;;;6.55;2.58;;;;;;;;;;4853203;29;20700;-90
2023/06/15 16:36:31;;;;;;;14.63;2.67;;;;;;;;;;4855743;29;20033;-89
2023/06/15 16:38:59;;;;;;;3.38;2.45;;;;;;;;;;4857050;29;20062;-89
2023/06/15 16:41:36;;;;;;;4.43;3.20;;;;;;;;;;4824974;29;20048;-89
2023/06/15 16:44:03;;;;;;;6.65;2.42;;;;;;;;;;4839896;29;20064;-89
2023/06/15 16:46:30;;;;;;;7.60;2.60;;;;;;;;;;4843026;29;20033;-90
2023/06/15 16:48:56;;;;;;;3.92;2.88;;;;;;;;;;4859522;29;20037;-87
2023/06/15 16:51:31;;;;;;;6.55;2.38;;;;;;;;;;4850116;29;20045;-89
2023/06/15 16:53:59;;;;;;;11.13;3.15;;;;;;;;;;4842319;29;20037;-88
2023/06/15 16:56:26;;;;;;;3.45;2.55;;;;;;;;;;4854986;29;20491;-89
2023/06/15 16:58:52;;;;;;;4.90;2.40;;;;;;;;;;4859765;29;20045;-90
2023/06/15 17:01:19;;;;;;;5.75;2.65;;;;;;;;;;4853511;29;20086;-90